Montevideo, Brazil
Current Conditions -  °F | °C
As of 3:00 PM on Thursday 23 Oct 2014 (Local Time) from SBJU Reporting Station
Scattered Clouds Scattered Clouds  
Wind Chill: 93°   Ceiling: Unl
Heat Index: 94°   Visibility: 6mi
Dew Point: 63°   Wind: 9mph
Humidity: 36%   Direction: 190°S
Pressure: 29.94"   Gusts: NA
Location:  7.36°S, 38.42°W
Report Text: SBJU 231800Z 19008KT 9999 SCT023 FEW024TCU 34/17 Q1014
Loading
Personal Weather Stations






























Interactive Weather Map
Tropical Storm Tracking
New forecast layout! Learn more

10-Day Weather Forecast

Advertisements
Track Severe Weather on mobile